Time;durP1;ratioP1;P1;durP2;ratioP2;P2;SDS_P1;SDS_P2;PMS_P1;PMS_P2;Temp;Humidity;BMP_temperature;BMP_pressure;BME280_temperature;BME280_humidity;BME280_pressure;Samples;Min_cycle;Max_cycle;Signal;HPM_P1;HPM_P2
2022/03/29 00:01:56;;;;;;;23.77;10.15;;;11.80;99.90;;;;;;5016261;28;20544;-59
2022/03/29 00:04:22;;;;;;;21.15;9.98;;;11.70;99.90;;;;;;5016217;28;20068;-55
2022/03/29 00:06:48;;;;;;;18.88;8.95;;;11.70;99.90;;;;;;5016448;28;20054;-54
2022/03/29 00:09:14;;;;;;;33.47;10.27;;;11.80;99.90;;;;;;5014889;28;20033;-56
2022/03/29 00:11:39;;;;;;;20.40;9.52;;;11.70;99.90;;;;;;5016106;28;20033;-57
2022/03/29 00:14:06;;;;;;;18.35;8.38;;;11.70;99.90;;;;;;5014787;28;20033;-59
2022/03/29 00:16:32;;;;;;;16.90;8.88;;;11.70;99.90;;;;;;5016108;28;20218;-58
2022/03/29 00:18:58;;;;;;;18.45;9.88;;;11.90;99.90;;;;;;5016015;28;20495;-58
2022/03/29 00:21:24;;;;;;;19.33;9.52;;;11.80;99.90;;;;;;5014686;28;20022;-55
2022/03/29 00:23:50;;;;;;;21.17;9.82;;;11.70;99.90;;;;;;5015973;28;20033;-57
2022/03/29 00:26:16;;;;;;;24.05;9.88;;;11.60;99.90;;;;;;5016109;28;20133;-57
2022/03/29 00:28:42;;;;;;;20.33;9.93;;;11.60;99.90;;;;;;5014803;28;20056;-59
2022/03/29 00:31:08;;;;;;;19.85;10.07;;;11.60;99.90;;;;;;5015749;28;20112;-58
2022/03/29 00:33:34;;;;;;;19.75;8.93;;;11.60;99.90;;;;;;5014461;28;20026;-58
2022/03/29 00:36:00;;;;;;;20.75;8.88;;;11.60;99.90;;;;;;5014679;28;20026;-58
2022/03/29 00:38:25;;;;;;;22.17;9.75;;;11.70;99.90;;;;;;5014498;28;20026;-58
2022/03/29 00:40:51;;;;;;;19.77;8.88;;;11.70;99.90;;;;;;5015835;28;20018;-59
2022/03/29 00:43:17;;;;;;;24.25;10.18;;;11.70;99.90;;;;;;5014490;28;20021;-57
2022/03/29 00:45:43;;;;;;;27.35;10.23;;;11.60;99.90;;;;;;5015397;28;20033;-56
2022/03/29 00:48:09;;;;;;;22.77;10.02;;;11.60;99.90;;;;;;5014061;28;20072;-59
2022/03/29 00:50:38;;;;;;;25.50;10.65;;;11.40;99.90;;;;;;5015447;28;20021;-59
2022/03/29 00:53:05;;;;;;;21.00;9.68;;;11.40;99.90;;;;;;5015229;28;20022;-55
2022/03/29 00:55:31;;;;;;;20.90;9.88;;;11.30;99.90;;;;;;5013869;28;20041;-57
2022/03/29 00:57:58;;;;;;;30.63;10.98;;;11.40;99.90;;;;;;5014045;28;20034;-58
2022/03/29 01:00:24;;;;;;;24.25;11.38;;;11.40;99.90;;;;;;5013991;28;20057;-54
2022/03/29 01:02:51;;;;;;;20.25;9.23;;;11.30;99.90;;;;;;5015497;28;20026;-57
2022/03/29 01:05:17;;;;;;;19.20;10.10;;;11.40;99.90;;;;;;5015035;28;20034;-58
2022/03/29 01:07:43;;;;;;;26.17;11.07;;;11.40;99.90;;;;;;5014618;28;20022;-58
2022/03/29 01:10:08;;;;;;;22.58;10.10;;;11.40;99.90;;;;;;5013711;28;20026;-54
2022/03/29 01:12:36;;;;;;;23.63;10.90;;;11.30;99.90;;;;;;5013674;28;20033;-55
2022/03/29 01:15:05;;;;;;;24.25;10.70;;;11.30;99.90;;;;;;5014884;28;20046;-56
2022/03/29 01:17:40;;;;;;;23.85;10.23;;;11.20;99.90;;;;;;5013554;28;20025;-59
2022/03/29 01:20:09;;;;;;;27.35;10.60;;;11.10;99.90;;;;;;5014592;28;20029;-57
2022/03/29 01:22:39;;;;;;;23.35;10.23;;;11.10;99.90;;;;;;5013872;28;20073;-58
2022/03/29 01:25:06;;;;;;;21.17;10.23;;;11.10;99.90;;;;;;5014245;28;20026;-59
2022/03/29 01:27:33;;;;;;;19.40;9.10;;;11.10;99.90;;;;;;5014660;28;20499;-54
2022/03/29 01:30:00;;;;;;;24.27;10.35;;;11.10;99.90;;;;;;5014706;28;20053;-59
2022/03/29 01:32:28;;;;;;;18.45;9.25;;;11.20;99.90;;;;;;5013421;28;20038;-57
2022/03/29 01:34:54;;;;;;;24.75;12.23;;;11.10;99.90;;;;;;5014356;28;20049;-59
2022/03/29 01:37:20;;;;;;;26.48;11.13;;;11.10;99.90;;;;;;5014477;28;20056;-59
2022/03/29 01:39:46;;;;;;;21.73;9.85;;;11.00;99.90;;;;;;5014522;28;20125;-59
2022/03/29 01:42:11;;;;;;;22.55;10.23;;;11.00;99.90;;;;;;5014527;28;20025;-55
2022/03/29 01:44:37;;;;;;;21.15;9.65;;;11.00;99.90;;;;;;5014413;28;20388;-56
2022/03/29 01:47:03;;;;;;;24.30;10.27;;;11.00;99.90;;;;;;5012842;28;20396;-56
2022/03/29 01:49:29;;;;;;;20.40;10.00;;;10.90;99.90;;;;;;5014060;28;20053;-55
2022/03/29 01:51:56;;;;;;;25.73;11.48;;;10.90;99.90;;;;;;5013339;28;20033;-58
2022/03/29 01:54:22;;;;;;;23.77;11.80;;;10.90;99.90;;;;;;5013181;28;20168;-58
2022/03/29 01:56:48;;;;;;;25.50;10.48;;;10.80;99.90;;;;;;5013965;28;20124;-59
2022/03/29 01:59:13;;;;;;;24.33;10.88;;;10.70;99.90;;;;;;5014152;28;20022;-57
2022/03/29 02:01:44;;;;;;;27.17;10.27;;;10.70;99.90;;;;;;5014434;28;20029;-58
2022/03/29 02:04:10;;;;;;;25.38;11.40;;;10.60;99.90;;;;;;5014229;28;20514;-57
2022/03/29 02:06:36;;;;;;;20.35;10.23;;;10.60;99.90;;;;;;5013056;28;20022;-56
2022/03/29 02:09:03;;;;;;;23.80;10.40;;;10.50;99.90;;;;;;5013933;28;20373;-58
2022/03/29 02:11:29;;;;;;;25.92;11.68;;;10.30;99.90;;;;;;5014014;28;20038;-57
2022/03/29 02:13:55;;;;;;;23.75;11.88;;;10.20;99.90;;;;;;5012729;28;20030;-59
2022/03/29 02:16:21;;;;;;;21.75;11.05;;;10.20;99.90;;;;;;5013729;28;20029;-56
2022/03/29 02:18:47;;;;;;;20.20;10.02;;;10.20;99.90;;;;;;5012624;28;20025;-57
2022/03/29 02:21:19;;;;;;;22.50;10.75;;;10.30;99.90;;;;;;5013059;28;20022;-58
2022/03/29 02:23:44;;;;;;;28.90;11.27;;;10.30;99.90;;;;;;5012749;28;20026;-57
2022/03/29 02:26:10;;;;;;;36.75;15.98;;;10.20;99.90;;;;;;5013847;28;20040;-57
2022/03/29 02:28:36;;;;;;;30.00;12.18;;;10.20;99.90;;;;;;5013772;28;20022;-58
2022/03/29 02:31:02;;;;;;;31.98;13.40;;;10.10;99.90;;;;;;5013839;28;20026;-54
2022/03/29 02:33:27;;;;;;;31.50;12.52;;;10.00;99.90;;;;;;5013678;28;20018;-58
2022/03/29 02:35:54;;;;;;;27.88;12.95;;;10.10;99.90;;;;;;5012303;28;20030;-57
2022/03/29 02:38:20;;;;;;;27.40;12.48;;;10.10;99.90;;;;;;5012972;28;20042;-57
2022/03/29 02:40:46;;;;;;;27.75;12.38;;;10.10;99.90;;;;;;5013616;28;20022;-57
2022/03/29 02:43:12;;;;;;;30.13;12.60;;;10.10;99.90;;;;;;5012310;28;20018;-54
2022/03/29 02:45:38;;;;;;;28.35;12.15;;;10.20;99.90;;;;;;5012267;28;20036;-59
2022/03/29 02:48:04;;;;;;;31.00;13.60;;;10.10;99.90;;;;;;5012257;28;20030;-58
2022/03/29 02:50:29;;;;;;;33.90;13.35;;;10.10;99.90;;;;;;5012155;28;20025;-58
2022/03/29 02:52:59;;;;;;;29.85;13.52;;;10.10;99.90;;;;;;5013396;28;20030;-58
2022/03/29 02:55:27;;;;;;;32.22;14.75;;;10.10;99.90;;;;;;5012048;28;20030;-52
2022/03/29 02:57:54;;;;;;;35.30;14.60;;;10.00;99.90;;;;;;5012629;28;20044;-58
2022/03/29 03:00:20;;;;;;;30.33;13.60;;;10.00;99.90;;;;;;5014093;28;20030;-54
2022/03/29 03:02:50;;;;;;;34.75;14.32;;;10.00;99.90;;;;;;5017413;28;20420;-59
2022/03/29 03:05:19;;;;;;;26.42;12.85;;;9.90;99.90;;;;;;5016186;28;20091;-59
2022/03/29 03:07:45;;;;;;;28.42;12.93;;;10.00;99.90;;;;;;5016050;28;20061;-57
2022/03/29 03:10:12;;;;;;;30.25;13.48;;;10.00;99.90;;;;;;5017328;28;20034;-55
2022/03/29 03:12:47;;;;;;;35.20;13.95;;;10.00;99.90;;;;;;5015987;28;20033;-54
2022/03/29 03:15:15;;;;;;;33.75;14.15;;;10.00;99.90;;;;;;5017159;28;20076;-57
2022/03/29 03:17:41;;;;;;;35.17;13.65;;;10.00;99.90;;;;;;5017039;28;20050;-57
2022/03/29 03:20:07;;;;;;;27.58;12.73;;;10.00;99.90;;;;;;5017248;28;20373;-59
2022/03/29 03:22:36;;;;;;;35.13;14.63;;;10.10;99.90;;;;;;5016576;28;20056;-57
2022/03/29 03:25:02;;;;;;;25.85;13.88;;;10.10;99.90;;;;;;5016908;28;20388;-58
2022/03/29 03:27:28;;;;;;;35.58;13.10;;;10.00;99.90;;;;;;5016779;28;20025;-58
2022/03/29 03:29:53;;;;;;;26.63;12.88;;;10.10;99.90;;;;;;5016910;28;20051;-56
2022/03/29 03:32:19;;;;;;;29.13;13.82;;;10.10;99.90;;;;;;5015643;28;20029;-59
2022/03/29 03:34:44;;;;;;;38.45;14.52;;;10.10;99.90;;;;;;5016734;28;20033;-59
2022/03/29 03:37:10;;;;;;;31.80;12.93;;;10.20;99.90;;;;;;5015718;28;20036;-57
2022/03/29 03:39:39;;;;;;;29.75;13.07;;;10.10;99.90;;;;;;5015764;28;20018;-59
2022/03/29 03:42:06;;;;;;;34.60;14.88;;;10.20;99.90;;;;;;5015510;28;20048;-59
2022/03/29 03:44:32;;;;;;;37.35;15.05;;;10.20;99.90;;;;;;5015268;28;20034;-57
2022/03/29 03:47:00;;;;;;;35.13;14.30;;;10.10;99.90;;;;;;5016187;28;20089;-55
2022/03/29 03:49:26;;;;;;;37.63;14.55;;;9.90;99.90;;;;;;5015422;28;20053;-55
2022/03/29 03:51:51;;;;;;;35.38;15.10;;;9.90;99.90;;;;;;5015300;28;20037;-57
2022/03/29 03:54:17;;;;;;;35.63;14.68;;;9.90;99.90;;;;;;5015549;28;20026;-58
2022/03/29 03:56:43;;;;;;;37.20;14.07;;;9.80;99.90;;;;;;5015566;28;20026;-55
2022/03/29 03:59:08;;;;;;;28.95;13.95;;;9.90;99.90;;;;;;5015111;28;20071;-56
2022/03/29 04:01:34;;;;;;;31.92;13.43;;;9.90;99.90;;;;;;5015088;28;20022;-58
2022/03/29 04:04:00;;;;;;;31.35;15.05;;;9.90;99.90;;;;;;5015067;28;20022;-59
2022/03/29 04:06:26;;;;;;;34.45;14.85;;;9.90;99.90;;;;;;5014932;28;20029;-57
2022/03/29 04:08:51;;;;;;;30.30;13.68;;;9.70;99.90;;;;;;5014961;28;20029;-59
2022/03/29 04:11:19;;;;;;;38.28;16.02;;;9.80;99.90;;;;;;5016203;28;20499;-55
2022/03/29 04:13:44;;;;;;;33.45;14.02;;;9.70;99.90;;;;;;5015042;28;20026;-54
2022/03/29 04:16:10;;;;;;;28.70;13.23;;;9.70;99.90;;;;;;5016259;28;20028;-59
2022/03/29 04:18:35;;;;;;;38.70;14.35;;;9.70;99.90;;;;;;5015110;28;20021;-59
2022/03/29 04:21:01;;;;;;;32.92;13.90;;;9.70;99.90;;;;;;5014753;28;20021;-59
2022/03/29 04:23:27;;;;;;;34.00;13.40;;;9.60;99.90;;;;;;5014768;28;20093;-59
2022/03/29 04:25:54;;;;;;;35.25;15.00;;;9.50;99.90;;;;;;5014565;28;20033;-59
2022/03/29 04:28:19;;;;;;;34.50;13.70;;;9.50;99.90;;;;;;5016072;28;20025;-57
2022/03/29 04:30:45;;;;;;;30.15;13.40;;;9.50;99.90;;;;;;5016346;28;20018;-59
2022/03/29 04:33:11;;;;;;;36.40;13.48;;;9.50;99.90;;;;;;5015071;28;20049;-57
2022/03/29 04:35:37;;;;;;;34.67;13.88;;;9.50;99.90;;;;;;5015565;28;20040;-59
2022/03/29 04:38:03;;;;;;;25.73;13.32;;;9.50;99.90;;;;;;5014311;28;20117;-58
2022/03/29 04:40:28;;;;;;;28.45;13.35;;;9.40;99.90;;;;;;5015518;28;20018;-55
2022/03/29 04:42:54;;;;;;;33.53;14.30;;;9.40;99.90;;;;;;5014441;28;20029;-58
2022/03/29 04:45:20;;;;;;;31.95;15.13;;;9.30;99.90;;;;;;5014533;28;20053;-59
2022/03/29 04:47:47;;;;;;;32.90;13.68;;;9.20;99.90;;;;;;5014188;28;20026;-56
2022/03/29 04:50:15;;;;;;;28.17;13.10;;;9.20;99.90;;;;;;5014161;28;20064;-56
2022/03/29 04:52:44;;;;;;;35.60;15.15;;;9.20;99.90;;;;;;5015499;28;20032;-54
2022/03/29 04:55:10;;;;;;;30.10;12.63;;;9.30;99.90;;;;;;5014398;28;20028;-58
2022/03/29 04:57:36;;;;;;;29.80;12.90;;;9.20;99.90;;;;;;5014286;28;20041;-57
2022/03/29 05:00:03;;;;;;;31.85;13.13;;;9.20;99.90;;;;;;5013946;28;20030;-55
2022/03/29 05:02:28;;;;;;;30.10;13.20;;;9.10;99.90;;;;;;5014740;28;20022;-57
2022/03/29 05:04:54;;;;;;;31.05;13.85;;;9.10;99.90;;;;;;5014158;28;20033;-59
2022/03/29 05:07:22;;;;;;;37.22;14.90;;;9.10;99.90;;;;;;5014797;28;20032;-58
2022/03/29 05:09:48;;;;;;;32.45;14.50;;;9.00;99.90;;;;;;5015054;28;20022;-56
2022/03/29 05:12:14;;;;;;;35.67;15.05;;;9.00;99.90;;;;;;5014773;28;20547;-59
2022/03/29 05:14:39;;;;;;;39.85;15.40;;;9.00;99.90;;;;;;5013901;28;20032;-55
2022/03/29 05:17:05;;;;;;;37.92;14.43;;;9.00;99.90;;;;;;5013984;28;20022;-59
2022/03/29 05:19:31;;;;;;;35.25;14.05;;;9.00;99.90;;;;;;5014750;28;20033;-57
2022/03/29 05:21:56;;;;;;;34.58;13.93;;;9.00;99.90;;;;;;5014729;28;20026;-57
2022/03/29 05:24:22;;;;;;;35.17;14.98;;;9.10;99.90;;;;;;5013307;28;20018;-58
2022/03/29 05:26:48;;;;;;;40.95;15.73;;;9.10;99.90;;;;;;5013481;28;20069;-57
2022/03/29 05:29:13;;;;;;;41.30;16.08;;;9.10;99.90;;;;;;5013492;28;20033;-58
2022/03/29 05:31:39;;;;;;;34.60;13.63;;;9.10;99.90;;;;;;5013338;28;20022;-56
2022/03/29 05:34:05;;;;;;;32.10;13.25;;;9.20;99.90;;;;;;5013607;28;20034;-56
2022/03/29 05:36:31;;;;;;;28.52;13.32;;;9.40;99.90;;;;;;5014438;28;20021;-59
2022/03/29 05:38:57;;;;;;;40.05;14.68;;;9.60;99.90;;;;;;5014595;28;20026;-59
2022/03/29 05:41:23;;;;;;;33.22;14.63;;;9.50;99.90;;;;;;5014056;28;20022;-57
2022/03/29 05:43:49;;;;;;;38.95;15.65;;;9.40;99.90;;;;;;5013231;28;20487;-59
2022/03/29 05:49:00;;;;;;;28.17;13.88;;;9.20;99.90;;;;;;5014978;28;20126;-54
2022/03/29 05:51:28;;;;;;;36.10;15.32;;;9.30;99.90;;;;;;5013080;28;20026;-57
2022/03/29 05:53:55;;;;;;;37.25;14.10;;;9.30;99.90;;;;;;5014210;28;20026;-55
2022/03/29 05:56:22;;;;;;;42.67;15.35;;;9.40;99.90;;;;;;5014479;28;20026;-58
2022/03/29 05:58:48;;;;;;;40.10;15.23;;;9.40;99.90;;;;;;5013613;28;20070;-54
2022/03/29 06:01:14;;;;;;;36.00;15.65;;;9.40;99.90;;;;;;5013001;28;20022;-55
2022/03/29 06:03:40;;;;;;;39.70;15.82;;;9.40;99.90;;;;;;5015966;28;20022;-55
2022/03/29 06:06:06;;;;;;;40.90;16.65;;;9.50;99.90;;;;;;5013377;28;20053;-55
2022/03/29 06:08:32;;;;;;;34.53;14.88;;;9.60;99.90;;;;;;5013455;28;20018;-56
2022/03/29 06:10:58;;;;;;;45.83;16.13;;;9.60;99.90;;;;;;5014248;28;20037;-56
2022/03/29 06:13:25;;;;;;;39.95;14.10;;;9.70;99.90;;;;;;5014435;28;20013;-56
2022/03/29 06:15:51;;;;;;;44.22;15.57;;;9.80;99.90;;;;;;5013809;28;20030;-56
2022/03/29 06:18:16;;;;;;;37.20;16.60;;;9.90;99.90;;;;;;5013403;28;20437;-54
2022/03/29 06:20:42;;;;;;;42.70;18.05;;;9.80;99.90;;;;;;5013714;28;20045;-55
2022/03/29 06:23:07;;;;;;;39.10;16.20;;;9.80;99.90;;;;;;5013032;28;20033;-54
2022/03/29 06:25:34;;;;;;;42.08;17.55;;;9.80;99.90;;;;;;5013882;28;20025;-56
2022/03/29 06:28:00;;;;;;;43.65;16.92;;;9.90;99.90;;;;;;5012873;28;20072;-54
2022/03/29 06:30:26;;;;;;;46.08;18.85;;;10.10;99.90;;;;;;5014368;28;20086;-57
2022/03/29 06:32:52;;;;;;;40.25;19.13;;;10.00;99.90;;;;;;5013675;28;20022;-57
2022/03/29 06:35:24;;;;;;;48.00;21.10;;;10.20;99.90;;;;;;5011409;28;20061;-55
2022/03/29 06:37:51;;;;;;;;;;;10.30;99.90;;;;;;5014322;28;20025;-56
2022/03/29 06:40:17;;;;;;;36.33;16.98;;;10.40;99.90;;;;;;5012598;28;19905;-55
2022/03/29 06:42:43;;;;;;;45.95;17.58;;;10.50;99.90;;;;;;5012775;28;20503;-56
2022/03/29 06:45:09;;;;;;;48.50;20.58;;;10.70;99.90;;;;;;5014027;28;20029;-56
2022/03/29 06:47:35;;;;;;;39.70;19.55;;;10.90;99.90;;;;;;5012901;28;20099;-58
2022/03/29 06:50:01;;;;;;;40.85;17.25;;;11.00;99.90;;;;;;5012527;28;20049;-58
2022/03/29 06:52:29;;;;;;;38.85;16.35;;;11.20;99.90;;;;;;5013633;28;20029;-59
2022/03/29 06:54:55;;;;;;;41.10;17.98;;;11.30;99.90;;;;;;5012350;28;20029;-56
2022/03/29 06:57:20;;;;;;;42.13;19.15;;;11.40;99.90;;;;;;5012137;28;20034;-56
2022/03/29 06:59:46;;;;;;;35.38;16.00;;;11.70;99.90;;;;;;5012689;28;20101;-55
2022/03/29 07:02:13;;;;;;;40.90;18.05;;;11.70;99.90;;;;;;5013800;28;20022;-55
2022/03/29 07:04:39;;;;;;;38.90;17.42;;;11.80;99.90;;;;;;5013494;28;20030;-61
2022/03/29 07:07:04;;;;;;;41.08;17.23;;;11.90;99.90;;;;;;5012050;28;20116;-61
2022/03/29 07:12:14;;;;;;;36.47;15.00;;;12.20;99.90;;;;;;5013384;28;20056;-60
2022/03/29 07:14:40;;;;;;;32.53;14.20;;;12.40;99.90;;;;;;5013404;28;20030;-63
2022/03/29 07:17:09;;;;;;;34.03;14.63;;;12.50;99.90;;;;;;5013360;28;20049;-57
2022/03/29 07:19:35;;;;;;;32.10;14.02;;;12.60;99.90;;;;;;5012096;28;20022;-61
2022/03/29 07:22:01;;;;;;;29.58;13.40;;;12.60;99.90;;;;;;5013368;28;20096;-61
2022/03/29 07:24:26;;;;;;;35.08;13.98;;;12.80;99.90;;;;;;5011809;28;20030;-60
2022/03/29 07:26:52;;;;;;;35.10;14.50;;;12.90;99.90;;;;;;5011920;28;20484;-61
2022/03/29 07:29:18;;;;;;;39.55;16.23;;;13.10;99.90;;;;;;5012154;28;20045;-60
2022/03/29 07:31:43;;;;;;;32.88;15.75;;;13.00;99.90;;;;;;5011910;28;20026;-60
2022/03/29 07:34:09;;;;;;;28.27;13.02;;;12.80;99.90;;;;;;5012033;28;20026;-61
2022/03/29 07:36:34;;;;;;;37.90;15.73;;;12.80;99.90;;;;;;5012574;28;20029;-58
2022/03/29 07:39:00;;;;;;;35.70;14.68;;;12.60;99.90;;;;;;5011741;28;20026;-60
2022/03/29 07:41:26;;;;;;;33.47;14.25;;;12.50;99.90;;;;;;5011858;28;20021;-60
2022/03/29 07:43:52;;;;;;;35.47;15.05;;;12.50;99.90;;;;;;5012187;28;20034;-60
2022/03/29 07:46:17;;;;;;;34.25;14.88;;;12.70;99.90;;;;;;5015029;28;20032;-59
2022/03/29 07:48:43;;;;;;;34.30;15.10;;;12.80;99.90;;;;;;5017099;28;20030;-61
2022/03/29 07:51:11;;;;;;;40.00;16.08;;;12.90;99.90;;;;;;5016767;28;20069;-61
2022/03/29 07:53:37;;;;;;;35.08;13.95;;;12.90;99.90;;;;;;5015643;28;20030;-60
2022/03/29 07:56:04;;;;;;;37.42;14.30;;;12.80;99.90;;;;;;5015005;28;20022;-60
2022/03/29 07:58:29;;;;;;;31.60;14.07;;;12.90;99.90;;;;;;5016718;28;20054;-60
2022/03/29 08:00:55;;;;;;;38.17;15.48;;;12.90;99.90;;;;;;5015589;28;20065;-60
2022/03/29 08:03:21;;;;;;;31.20;14.00;;;13.00;99.90;;;;;;5015519;28;20072;-58
2022/03/29 08:05:48;;;;;;;31.05;13.13;;;12.90;99.90;;;;;;5015136;28;20507;-60
2022/03/29 08:08:15;;;;;;;32.65;13.80;;;12.90;99.90;;;;;;5016166;28;20108;-59
2022/03/29 08:10:42;;;;;;;33.13;13.85;;;13.00;99.90;;;;;;5016612;28;20032;-60
2022/03/29 08:13:10;;;;;;;32.20;13.98;;;13.10;99.90;;;;;;5014826;28;20030;-60
2022/03/29 08:15:38;;;;;;;28.05;12.77;;;13.30;99.90;;;;;;5014813;28;20044;-59
2022/03/29 08:18:04;;;;;;;29.30;13.10;;;13.60;99.90;;;;;;5014779;28;20032;-63
2022/03/29 08:20:30;;;;;;;30.52;12.02;;;13.60;99.90;;;;;;5016050;28;20106;-60
2022/03/29 08:23:00;;;;;;;25.65;12.50;;;13.70;99.90;;;;;;5015073;28;20460;-60
2022/03/29 08:25:31;;;;;;;30.08;13.52;;;13.80;99.90;;;;;;5015495;28;20041;-60
2022/03/29 08:27:57;;;;;;;24.92;11.63;;;13.70;99.90;;;;;;5016689;28;20049;-60
2022/03/29 08:30:26;;;;;;;23.50;11.70;;;13.80;99.90;;;;;;5014842;28;20040;-61
2022/03/29 08:32:53;;;;;;;27.60;11.45;;;14.00;99.90;;;;;;5015789;28;20025;-60
2022/03/29 08:35:19;;;;;;;33.00;13.02;;;14.10;99.90;;;;;;5014780;28;20080;-60
2022/03/29 08:37:46;;;;;;;31.92;13.25;;;14.30;99.90;;;;;;5015898;28;20030;-60
2022/03/29 08:40:16;;;;;;;27.98;12.88;;;14.20;99.90;;;;;;5015623;28;20022;-60
2022/03/29 08:42:43;;;;;;;28.45;11.35;;;14.40;99.90;;;;;;5014431;28;20032;-61
2022/03/29 08:45:11;;;;;;;25.13;11.52;;;14.90;99.90;;;;;;5015663;28;20022;-60
2022/03/29 08:47:38;;;;;;;32.90;13.75;;;15.40;99.90;;;;;;5015520;28;20060;-61
2022/03/29 08:50:05;;;;;;;31.48;14.32;;;15.80;99.90;;;;;;5015518;28;20088;-61
2022/03/29 08:52:32;;;;;;;28.58;13.35;;;15.80;99.90;;;;;;5014554;28;20083;-61
2022/03/29 08:54:57;;;;;;;28.55;13.73;;;15.80;99.90;;;;;;5015295;28;20056;-61
2022/03/29 08:57:23;;;;;;;30.70;12.82;;;15.90;99.90;;;;;;5014620;28;20050;-61
2022/03/29 08:59:49;;;;;;;26.70;14.48;;;16.40;99.90;;;;;;5014107;28;20061;-61
2022/03/29 09:02:16;;;;;;;34.10;14.65;;;17.00;99.90;;;;;;5015237;28;20034;-61
2022/03/29 09:04:43;;;;;;;26.02;13.93;;;17.40;99.90;;;;;;5015371;28;20101;-61
2022/03/29 09:07:09;;;;;;;24.17;13.13;;;17.70;99.90;;;;;;5015188;28;20091;-61
2022/03/29 09:09:41;;;;;;;26.73;13.30;;;18.30;99.90;;;;;;5014891;28;20026;-61
2022/03/29 09:12:11;;;;;;;;;;;18.90;99.90;;;;;;5015667;28;20033;-61
2022/03/29 09:14:52;;;;;;;25.73;12.77;;;19.00;99.90;;;;;;5013702;28;19935;-61
2022/03/29 09:17:24;;;;;;;26.20;13.10;;;19.60;99.90;;;;;;5014703;28;20021;-59
2022/03/29 09:19:51;;;;;;;28.70;12.63;;;20.30;99.90;;;;;;5013927;28;20029;-59
2022/03/29 09:22:52;;;;;;;19.80;12.48;;;20.70;99.90;;;;;;5014036;28;20021;-61
2022/03/29 09:25:24;;;;;;;20.20;11.63;;;20.90;96.80;;;;;;5015504;28;20053;-59
2022/03/29 09:27:54;;;;;;;29.00;11.77;;;20.60;94.80;;;;;;5013537;28;20030;-59
2022/03/29 09:30:21;;;;;;;19.75;11.65;;;20.80;94.20;;;;;;5013642;28;20022;-59
2022/03/29 09:32:56;;;;;;;18.73;10.35;;;20.60;92.40;;;;;;5014829;28;20026;-56
2022/03/29 09:35:22;;;;;;;19.05;10.18;;;19.80;90.00;;;;;;5014415;28;20037;-59
2022/03/29 09:37:48;;;;;;;18.67;9.63;;;19.60;89.10;;;;;;5014532;28;20075;-57
2022/03/29 09:40:14;;;;;;;18.73;10.40;;;19.30;88.90;;;;;;5014589;28;20101;-57
2022/03/29 09:42:41;;;;;;;17.42;9.13;;;18.80;90.20;;;;;;5013309;28;20030;-57
2022/03/29 09:45:08;;;;;;;16.17;8.88;;;18.90;90.20;;;;;;5013603;28;20029;-57
2022/03/29 09:47:34;;;;;;;16.83;9.88;;;18.60;89.50;;;;;;5014397;28;20032;-59
2022/03/29 09:50:10;;;;;;;18.98;8.73;;;18.80;90.40;;;;;;5014412;28;20392;-57
2022/03/29 09:52:37;;;;;;;16.60;9.85;;;19.50;89.60;;;;;;5013278;28;20030;-58
2022/03/29 09:55:13;;;;;;;15.75;9.00;;;19.40;88.10;;;;;;5014249;28;20025;-58
2022/03/29 09:57:49;;;;;;;17.60;9.18;;;19.10;87.80;;;;;;5013203;28;20164;-58
2022/03/29 10:00:18;;;;;;;16.35;9.13;;;19.60;88.20;;;;;;5013309;28;20033;-58
2022/03/29 10:02:47;;;;;;;15.25;7.38;;;19.50;85.60;;;;;;5013874;28;20026;-57
2022/03/29 10:05:18;;;;;;;12.55;8.23;;;19.40;85.80;;;;;;5013315;28;20033;-57
2022/03/29 10:07:46;;;;;;;13.85;8.23;;;19.20;86.30;;;;;;5014477;28;20479;-59
2022/03/29 10:10:12;;;;;;;11.88;7.28;;;19.30;87.00;;;;;;5013922;28;20053;-57
2022/03/29 10:12:38;;;;;;;18.50;9.98;;;19.60;86.70;;;;;;5013000;28;20026;-57
2022/03/29 10:15:06;;;;;;;16.88;8.45;;;19.40;88.20;;;;;;5013639;28;20421;-54
2022/03/29 10:17:33;;;;;;;13.88;8.55;;;19.00;87.30;;;;;;5013836;28;20427;-54
2022/03/29 10:20:00;;;;;;;16.08;9.20;;;19.50;88.10;;;;;;5013868;28;20396;-55
2022/03/29 10:22:27;;;;;;;14.00;8.55;;;19.70;87.00;;;;;;5012521;28;20021;-55
2022/03/29 10:24:53;;;;;;;16.05;8.52;;;20.00;88.00;;;;;;5012575;28;20029;-58
2022/03/29 10:27:20;;;;;;;13.80;8.43;;;20.00;87.30;;;;;;5013819;28;20048;-58
2022/03/29 10:29:46;;;;;;;16.77;8.95;;;19.90;84.60;;;;;;5012572;28;20026;-57
2022/03/29 10:32:31;;;;;;;16.67;8.98;;;19.80;84.30;;;;;;5012587;28;20026;-57
2022/03/29 10:35:10;;;;;;;21.33;9.05;;;19.30;84.60;;;;;;5012460;28;20033;-57
2022/03/29 10:37:53;;;;;;;15.82;8.55;;;18.60;85.80;;;;;;5013625;28;20054;-56
2022/03/29 10:40:39;;;;;;;13.27;7.57;;;18.40;87.00;;;;;;5012382;28;20057;-57
2022/03/29 10:43:25;;;;;;;12.10;7.88;;;18.40;86.00;;;;;;5013584;28;20032;-57
2022/03/29 10:45:50;;;;;;;18.02;8.30;;;18.30;84.70;;;;;;5013497;28;20036;-60
2022/03/29 10:48:17;;;;;;;17.67;9.30;;;18.00;86.40;;;;;;5013338;28;20021;-59
2022/03/29 10:50:56;;;;;;;14.25;7.80;;;17.70;87.90;;;;;;5012359;28;20061;-59
2022/03/29 10:53:31;;;;;;;17.58;8.50;;;17.60;88.40;;;;;;5012339;28;20032;-58
2022/03/29 10:56:19;;;;;;;16.70;7.93;;;17.50;88.40;;;;;;5012039;28;20022;-57
2022/03/29 10:59:04;;;;;;;17.38;7.40;;;17.40;88.20;;;;;;5012350;28;20029;-58
2022/03/29 11:01:30;;;;;;;16.08;7.72;;;17.40;88.00;;;;;;5012273;28;20018;-61
2022/03/29 11:04:07;;;;;;;16.63;7.65;;;17.10;88.50;;;;;;5013489;28;20085;-59
2022/03/29 11:06:33;;;;;;;17.35;7.90;;;17.00;88.70;;;;;;5013476;28;20020;-59
2022/03/29 11:09:15;;;;;;;12.13;6.75;;;17.10;90.00;;;;;;5013719;28;20029;-60
2022/03/29 11:11:50;;;;;;;13.20;7.55;;;16.90;88.50;;;;;;5012215;28;20056;-61
2022/03/29 11:14:33;;;;;;;19.00;7.10;;;17.10;89.10;;;;;;5013249;28;20022;-61
2022/03/29 11:17:14;;;;;;;12.63;7.43;;;17.00;89.80;;;;;;5012114;28;20026;-59
2022/03/29 11:19:54;;;;;;;10.63;6.87;;;17.10;89.00;;;;;;5012607;28;20021;-60
2022/03/29 11:22:29;;;;;;;12.43;7.88;;;16.70;89.10;;;;;;5015753;28;20049;-59
2022/03/29 11:25:05;;;;;;;12.98;6.68;;;16.80;89.00;;;;;;5015821;28;20026;-59
2022/03/29 11:27:33;;;;;;;14.43;7.15;;;17.10;89.90;;;;;;5015854;28;20131;-60
2022/03/29 11:30:01;;;;;;;11.60;6.50;;;17.60;89.10;;;;;;5015678;28;20088;-61
2022/03/29 11:32:27;;;;;;;11.40;6.07;;;17.40;88.80;;;;;;5015764;28;20037;-60
2022/03/29 11:34:57;;;;;;;13.20;6.22;;;17.60;89.00;;;;;;5016499;28;20026;-60
2022/03/29 11:37:33;;;;;;;13.67;6.93;;;17.60;86.70;;;;;;5015137;28;20499;-62
2022/03/29 11:40:01;;;;;;;13.98;6.78;;;17.60;86.80;;;;;;5016369;28;20029;-60
2022/03/29 11:42:49;;;;;;;15.95;7.10;;;17.80;86.10;;;;;;5015654;28;20025;-61
2022/03/29 11:45:16;;;;;;;12.50;6.85;;;17.90;86.20;;;;;;5017071;28;20021;-61
2022/03/29 11:47:52;;;;;;;15.00;6.63;;;17.80;87.50;;;;;;5016576;28;20068;-61
2022/03/29 11:50:51;;;;;;;15.10;6.43;;;17.90;85.30;;;;;;5015469;28;20091;-60
2022/03/29 11:53:22;;;;;;;13.68;6.38;;;17.70;84.40;;;;;;5015405;28;20026;-61
2022/03/29 11:56:00;;;;;;;15.00;6.63;;;17.70;86.20;;;;;;5015323;28;20040;-60
2022/03/29 11:58:30;;;;;;;11.20;5.95;;;17.70;85.10;;;;;;5016464;28;20030;-61
2022/03/29 12:01:16;;;;;;;11.50;6.13;;;17.40;85.80;;;;;;5015280;28;20022;-59
2022/03/29 12:03:44;;;;;;;13.18;5.78;;;17.40;85.80;;;;;;5016611;28;20029;-54
2022/03/29 12:06:12;;;;;;;10.15;5.68;;;17.60;86.90;;;;;;5017201;28;20046;-57
2022/03/29 12:08:49;;;;;;;13.13;6.13;;;17.60;86.10;;;;;;5015297;28;20392;-58
2022/03/29 12:11:21;;;;;;;12.98;6.55;;;17.50;86.90;;;;;;5016967;28;20091;-56
2022/03/29 12:14:01;;;;;;;14.02;5.85;;;17.20;87.00;;;;;;5016457;28;20033;-58
2022/03/29 12:16:27;;;;;;;8.05;5.15;;;17.20;86.70;;;;;;5014905;28;20017;-56
2022/03/29 12:18:53;;;;;;;9.88;5.53;;;17.30;86.60;;;;;;5014929;28;20484;-52
2022/03/29 12:21:21;;;;;;;12.02;5.53;;;17.40;86.60;;;;;;5014937;28;20124;-54
2022/03/29 12:23:49;;;;;;;13.23;5.22;;;17.60;87.20;;;;;;5014801;28;20061;-56
2022/03/29 12:26:17;;;;;;;16.98;5.97;;;17.70;87.00;;;;;;5014768;28;20049;-59
2022/03/29 12:28:45;;;;;;;14.48;6.00;;;17.90;86.80;;;;;;5014947;28;20056;-59
2022/03/29 12:31:13;;;;;;;7.43;4.50;;;17.80;86.00;;;;;;5014917;28;20021;-59
2022/03/29 12:33:39;;;;;;;16.23;5.32;;;17.80;85.70;;;;;;5015953;28;20025;-59
2022/03/29 12:36:08;;;;;;;9.65;5.30;;;17.60;85.60;;;;;;5014456;28;20041;-57
2022/03/29 12:38:49;;;;;;;11.18;5.30;;;17.40;85.80;;;;;;5015792;28;20022;-59
2022/03/29 12:41:32;;;;;;;7.60;4.87;;;17.70;86.10;;;;;;5015798;28;20022;-58
2022/03/29 12:43:57;;;;;;;8.32;4.40;;;17.70;85.80;;;;;;5014958;28;20041;-60